createdAt,value
2019-02-20T00:01:03.930Z,78.50
2019-02-20T00:03:33.966Z,78.50
2019-02-20T00:06:02.560Z,78.40
2019-02-20T00:08:31.009Z,78.40
2019-02-20T00:10:59.456Z,78.20
2019-02-20T00:13:27.927Z,78.30
2019-02-20T00:15:56.373Z,78.20
2019-02-20T00:18:24.823Z,78.20
2019-02-20T00:20:55.678Z,78.30
2019-02-20T00:23:24.128Z,78.30
2019-02-20T00:25:52.591Z,78.30
2019-02-20T00:28:21.059Z,78.30
2019-02-20T00:30:49.511Z,78.30
2019-02-20T00:33:18.925Z,78.30
2019-02-20T00:35:48.944Z,78.30
2019-02-20T00:38:18.062Z,78.20
2019-02-20T00:40:46.576Z,78.30
2019-02-20T00:43:15.055Z,78.30
2019-02-20T00:46:03.204Z,78.30
2019-02-20T00:48:39.140Z,78.30
2019-02-20T00:51:10.854Z,78.20
2019-02-20T00:53:41.002Z,78.20
2019-02-20T00:56:10.830Z,78.20
2019-02-20T00:58:39.377Z,78.20
2019-02-20T01:01:08.211Z,78.30
2019-02-20T01:03:38.355Z,78.20
2019-02-20T01:06:06.825Z,78.20
2019-02-20T01:08:35.274Z,78.30
2019-02-20T01:11:04.492Z,78.20
2019-02-20T01:13:33.029Z,79.10
2019-02-20T01:16:01.497Z,78.20
2019-02-20T01:18:29.996Z,78.20
2019-02-20T01:20:58.493Z,78.20
2019-02-20T01:23:26.943Z,78.20
2019-02-20T01:25:55.400Z,78.20
2019-02-20T01:28:24.211Z,78.20
2019-02-20T01:30:54.234Z,78.20
2019-02-20T01:33:22.698Z,78.10
2019-02-20T01:35:51.227Z,78.10
2019-02-20T01:38:19.759Z,78.00
2019-02-20T01:40:48.237Z,78.00
2019-02-20T01:43:17.025Z,78.00
2019-02-20T01:45:46.614Z,78.00
2019-02-20T01:48:16.495Z,78.10
2019-02-20T01:50:45.057Z,78.00
2019-02-20T01:53:15.195Z,78.00
2019-02-20T01:55:43.780Z,78.00
2019-02-20T01:58:12.277Z,78.00
2019-02-20T02:00:40.862Z,77.90
2019-02-20T02:03:09.344Z,78.70
2019-02-20T02:05:37.835Z,77.90
2019-02-20T02:08:06.324Z,77.80
2019-02-20T02:10:36.142Z,77.80
2019-02-20T02:13:04.693Z,77.90
2019-02-20T02:15:33.181Z,78.10
2019-02-20T02:18:03.237Z,78.00
2019-02-20T02:20:31.828Z,78.00
2019-02-20T02:23:00.304Z,78.20
2019-02-20T02:25:28.849Z,78.20
2019-02-20T02:27:57.540Z,78.40
2019-02-20T02:30:27.392Z,78.50
2019-02-20T02:32:57.524Z,78.60
2019-02-20T02:35:25.973Z,78.50
2019-02-20T02:37:54.430Z,78.70
2019-02-20T02:40:23.005Z,78.80
2019-02-20T02:42:51.596Z,78.90
2019-02-20T02:45:21.964Z,79.00
2019-02-20T02:47:50.445Z,79.10
2019-02-20T02:50:20.505Z,79.20
2019-02-20T02:52:48.964Z,79.20
2019-02-20T02:55:17.443Z,79.20
2019-02-20T02:57:45.903Z,79.30
2019-02-20T03:00:15.524Z,79.30
2019-02-20T03:02:44.768Z,79.30
2019-02-20T03:05:13.232Z,79.40
2019-02-20T03:07:41.754Z,79.40
2019-02-20T03:10:11.429Z,79.50
2019-02-20T03:12:39.886Z,79.50
2019-02-20T03:15:10.379Z,79.50
2019-02-20T03:17:39.781Z,79.60
2019-02-20T03:20:09.465Z,79.70
2019-02-20T03:22:37.933Z,79.80
2019-02-20T03:25:07.179Z,79.80
2019-02-20T03:27:36.305Z,79.90
2019-02-20T03:30:07.046Z,79.90
2019-02-20T03:32:35.623Z,80.00
2019-02-20T03:35:06.433Z,80.10
2019-02-20T03:37:34.962Z,80.20
2019-02-20T03:40:04.287Z,80.10
2019-02-20T03:42:32.751Z,80.10
2019-02-20T03:45:01.275Z,80.30
2019-02-20T03:47:29.997Z,80.20
2019-02-20T03:49:58.539Z,80.10
2019-02-20T03:52:27.031Z,80.20
2019-02-20T03:54:55.645Z,80.10
2019-02-20T03:57:24.285Z,80.20
2019-02-20T03:59:52.885Z,80.20
2019-02-20T04:02:22.559Z,80.20
2019-02-20T04:04:51.402Z,80.20
2019-02-20T04:07:20.090Z,80.20
2019-02-20T04:09:50.380Z,80.00
2019-02-20T04:12:18.927Z,80.10
2019-02-20T04:14:48.726Z,80.10
2019-02-20T04:17:18.421Z,80.10
2019-02-20T04:19:48.523Z,80.10
2019-02-20T04:22:18.427Z,80.10
2019-02-20T04:24:46.973Z,80.20
2019-02-20T04:27:16.652Z,80.30
2019-02-20T04:29:45.400Z,80.20
2019-02-20T04:32:13.958Z,80.30
2019-02-20T04:34:43.349Z,80.40
2019-02-20T04:37:11.900Z,80.40
2019-02-20T04:39:40.392Z,80.60
2019-02-20T04:42:08.915Z,80.60
2019-02-20T04:44:37.385Z,80.70
2019-02-20T04:47:05.854Z,80.80
2019-02-20T04:49:35.949Z,80.90
2019-02-20T04:52:04.898Z,80.90
2019-02-20T04:54:33.421Z,81.00
2019-02-20T04:57:01.916Z,81.10
2019-02-20T04:59:35.389Z,81.10
2019-02-20T05:02:03.624Z,81.20
2019-02-20T05:04:33.868Z,81.20
2019-02-20T05:07:02.611Z,81.20
2019-02-20T05:09:32.395Z,81.20
2019-02-20T05:12:00.888Z,81.30
2019-02-20T05:14:29.381Z,81.30
2019-02-20T05:16:59.597Z,81.20
2019-02-20T05:19:28.791Z,81.10
2019-02-20T05:21:58.907Z,81.10
2019-02-20T05:24:27.448Z,81.00
2019-02-20T05:26:56.579Z,80.90
2019-02-20T05:29:25.102Z,80.80
2019-02-20T05:31:53.566Z,80.80
2019-02-20T05:34:23.807Z,80.60
2019-02-20T05:36:54.311Z,80.60
2019-02-20T05:39:22.788Z,80.60
2019-02-20T05:41:53.598Z,80.40
2019-02-20T05:44:22.063Z,80.30
2019-02-20T05:46:53.044Z,80.20
2019-02-20T05:49:24.455Z,80.10
2019-02-20T05:51:52.913Z,80.00
2019-02-20T05:54:22.221Z,80.00
2019-02-20T05:56:50.702Z,79.90
2019-02-20T05:59:19.721Z,79.90
2019-02-20T06:01:48.316Z,79.90
2019-02-20T06:04:18.519Z,79.80
2019-02-20T06:06:49.375Z,79.80
2019-02-20T06:09:17.889Z,79.80
2019-02-20T06:11:47.376Z,79.70
2019-02-20T06:14:15.837Z,79.60
2019-02-20T06:16:44.355Z,79.60
2019-02-20T06:19:12.950Z,79.50
2019-02-20T06:21:41.433Z,79.50
2019-02-20T06:24:09.913Z,79.40
2019-02-20T06:26:38.410Z,79.40
2019-02-20T06:29:07.424Z,79.20
2019-02-20T06:31:36.546Z,79.10
2019-02-20T06:34:05.291Z,79.00
2019-02-20T06:36:33.732Z,78.90
2019-02-20T06:39:02.365Z,78.80
2019-02-20T06:41:38.619Z,78.70
2019-02-20T06:44:01.402Z,78.60
2019-02-20T06:46:29.915Z,78.40
2019-02-20T06:48:58.373Z,78.50
2019-02-20T06:51:26.859Z,78.40
2019-02-20T06:53:55.363Z,78.30
2019-02-20T06:56:23.872Z,78.10
2019-02-20T06:58:52.373Z,78.00
2019-02-20T07:01:20.914Z,77.90
2019-02-20T07:03:49.435Z,77.80
2019-02-20T07:06:43.791Z,77.70
2019-02-20T07:09:18.076Z,77.60
2019-02-20T07:11:52.260Z,77.60
2019-02-20T07:14:26.429Z,77.50
2019-02-20T07:17:31.287Z,77.30
2019-02-20T07:20:14.911Z,77.30
2019-02-20T07:23:16.794Z,77.10
2019-02-20T07:26:23.319Z,77.10
2019-02-20T07:29:18.812Z,77.00
2019-02-20T07:31:50.028Z,76.80
2019-02-20T07:34:18.506Z,76.90
2019-02-20T07:36:46.965Z,76.60
2019-02-20T07:39:15.491Z,76.60
2019-02-20T07:41:43.970Z,76.50
2019-02-20T07:44:12.443Z,76.40
2019-02-20T07:46:42.192Z,76.30
2019-02-20T07:49:10.754Z,76.30
2019-02-20T07:51:39.205Z,76.10
2019-02-20T07:54:07.697Z,76.00
2019-02-20T07:56:36.153Z,76.10
2019-02-20T07:59:04.939Z,75.90
2019-02-20T08:01:36.659Z,76.60
2019-02-20T08:04:05.183Z,75.60
2019-02-20T08:06:34.583Z,75.40
2019-02-20T08:09:04.724Z,75.10
2019-02-20T08:11:33.176Z,75.00
2019-02-20T08:14:01.640Z,74.80
2019-02-20T08:16:30.188Z,74.50
2019-02-20T08:19:03.594Z,74.40
2019-02-20T08:21:31.332Z,74.50
2019-02-20T08:24:00.768Z,74.30
2019-02-20T08:26:29.250Z,74.20
2019-02-20T08:28:57.745Z,74.00
2019-02-20T08:31:26.229Z,73.90
2019-02-20T08:33:54.674Z,73.80
2019-02-20T08:36:23.397Z,74.00
2019-02-20T08:38:51.898Z,73.70
2019-02-20T08:41:20.406Z,73.50
2019-02-20T08:43:48.866Z,73.40
2019-02-20T08:46:17.378Z,73.20
2019-02-20T08:48:46.106Z,72.90
2019-02-20T08:51:15.322Z,72.70
2019-02-20T08:53:43.917Z,72.60
2019-02-20T08:56:12.424Z,72.50
2019-02-20T08:58:41.039Z,72.30
2019-02-20T09:01:09.526Z,71.90
2019-02-20T09:03:37.988Z,71.90
2019-02-20T09:06:06.507Z,71.70
2019-02-20T09:08:35.281Z,71.40
2019-02-20T09:11:04.712Z,71.40
2019-02-20T09:13:34.375Z,71.10
2019-02-20T09:16:02.920Z,70.70
2019-02-20T09:18:31.445Z,70.70
2019-02-20T09:20:59.904Z,70.60
2019-02-20T09:23:28.383Z,71.00
2019-02-20T09:25:56.856Z,70.00
2019-02-20T09:28:25.567Z,69.90
2019-02-20T09:30:54.046Z,69.70
2019-02-20T09:33:22.575Z,69.80
2019-02-20T09:35:51.012Z,69.60
2019-02-20T09:38:19.729Z,69.50
2019-02-20T09:40:48.184Z,69.40
2019-02-20T09:43:16.648Z,69.30
2019-02-20T09:45:46.373Z,69.20
2019-02-20T09:48:15.070Z,68.90
2019-02-20T09:50:43.992Z,68.70
2019-02-20T09:53:12.473Z,68.50
2019-02-20T09:55:51.359Z,68.50
2019-02-20T09:58:13.944Z,68.40
2019-02-20T10:00:42.495Z,67.60
2019-02-20T10:03:10.935Z,67.70
2019-02-20T10:05:39.458Z,67.60
2019-02-20T10:08:07.975Z,67.10
2019-02-20T10:10:36.491Z,67.30
2019-02-20T10:13:05.326Z,67.20
2019-02-20T10:15:34.743Z,66.90
2019-02-20T10:18:03.341Z,66.40
2019-02-20T10:20:31.879Z,66.20
2019-02-20T10:23:00.374Z,65.50
2019-02-20T10:25:30.537Z,65.40
2019-02-20T10:27:59.072Z,64.60
2019-02-20T10:30:28.656Z,64.90
2019-02-20T10:32:57.121Z,65.10
2019-02-20T10:35:25.598Z,64.50
2019-02-20T10:37:54.090Z,64.50
2019-02-20T10:40:24.191Z,64.20
2019-02-20T10:42:52.979Z,63.40
2019-02-20T10:45:21.603Z,63.10
2019-02-20T10:47:50.271Z,62.70
2019-02-20T10:50:18.873Z,62.60
2019-02-20T10:52:47.576Z,62.50
2019-02-20T10:55:17.408Z,62.10
2019-02-20T10:57:45.934Z,62.40
2019-02-20T11:00:24.545Z,62.20
2019-02-20T11:02:53.206Z,61.70
2019-02-20T11:05:22.338Z,61.40
2019-02-20T11:07:52.408Z,61.30
2019-02-20T11:10:20.866Z,60.30
2019-02-20T11:12:50.213Z,59.50
2019-02-20T11:15:18.776Z,59.40
2019-02-20T11:17:47.324Z,59.20
2019-02-20T11:20:15.863Z,58.90
2019-02-20T11:22:44.414Z,58.30
2019-02-20T11:25:13.718Z,58.10
2019-02-20T11:27:42.164Z,57.80
2019-02-20T11:30:16.919Z,57.00
2019-02-20T11:32:45.445Z,56.80
2019-02-20T11:35:16.134Z,56.90
2019-02-20T11:37:44.670Z,56.60
2019-02-20T11:40:13.211Z,56.00
2019-02-20T11:42:41.692Z,56.00
2019-02-20T11:45:12.600Z,55.90
2019-02-20T11:47:41.188Z,55.70
2019-02-20T11:50:10.916Z,55.10
2019-02-20T11:52:39.824Z,54.40
2019-02-20T11:55:13.910Z,54.30
2019-02-20T11:57:43.364Z,54.20
2019-02-20T12:00:21.410Z,54.10
2019-02-20T12:02:49.907Z,53.20
2019-02-20T12:05:18.602Z,53.60
2019-02-20T12:07:47.067Z,53.80
2019-02-20T12:10:18.241Z,53.60
2019-02-20T12:12:46.939Z,53.70
2019-02-20T12:15:15.483Z,53.30
2019-02-20T12:17:44.095Z,53.10
2019-02-20T12:20:12.628Z,53.90
2019-02-20T12:22:41.083Z,53.00
2019-02-20T12:25:13.184Z,52.70
2019-02-20T12:27:41.812Z,52.70
2019-02-20T12:30:12.059Z,52.70
2019-02-20T12:32:40.779Z,53.00
2019-02-20T12:35:09.764Z,53.10
2019-02-20T12:37:38.219Z,53.30
2019-02-20T12:40:11.436Z,53.00
2019-02-20T12:42:41.848Z,52.40
2019-02-20T12:45:10.897Z,52.50
2019-02-20T12:47:39.461Z,52.90
2019-02-20T12:50:10.943Z,53.30
2019-02-20T12:52:39.817Z,53.50
2019-02-20T12:55:09.343Z,53.50
2019-02-20T12:57:39.310Z,53.40
2019-02-20T13:00:16.581Z,53.30
2019-02-20T13:02:45.174Z,53.10
2019-02-20T13:05:13.699Z,52.80
2019-02-20T13:07:42.155Z,52.90
2019-02-20T13:10:11.641Z,53.00
2019-02-20T13:12:40.260Z,52.30
2019-02-20T13:15:10.824Z,52.40
2019-02-20T13:17:39.353Z,52.70
2019-02-20T13:20:10.248Z,52.70
2019-02-20T13:22:40.323Z,52.80
2019-02-20T13:25:10.104Z,53.50
2019-02-20T13:27:43.601Z,53.30
2019-02-20T13:30:14.744Z,53.20
2019-02-20T13:32:44.649Z,53.10
2019-02-20T13:35:14.420Z,52.90
2019-02-20T13:37:44.579Z,53.20
2019-02-20T13:40:13.192Z,52.80
2019-02-20T13:42:43.275Z,52.90
2019-02-20T13:45:11.948Z,52.60
2019-02-20T13:47:40.579Z,52.00
2019-02-20T13:50:11.860Z,51.70
2019-02-20T13:52:40.802Z,51.30
2019-02-20T13:55:09.502Z,51.60
2019-02-20T13:57:48.135Z,51.50
2019-02-20T14:00:16.824Z,51.60
2019-02-20T14:02:46.828Z,51.10
2019-02-20T14:05:15.463Z,50.70
2019-02-20T14:07:45.941Z,49.80
2019-02-20T14:10:16.633Z,49.90
2019-02-20T14:12:45.233Z,49.90
2019-02-20T14:15:13.842Z,49.70
2019-02-20T14:17:43.871Z,49.80
2019-02-20T14:20:12.977Z,49.30
2019-02-20T14:22:42.484Z,48.80
2019-02-20T14:25:12.411Z,49.10
2019-02-20T14:30:29.856Z,49.10
2019-02-20T14:32:58.314Z,49.10
2019-02-20T14:35:28.458Z,49.30
2019-02-20T14:37:59.059Z,49.00
2019-02-20T14:40:28.841Z,49.30
2019-02-20T14:42:57.331Z,49.10
2019-02-20T14:45:25.960Z,49.40
2019-02-20T14:47:54.660Z,49.90
2019-02-20T14:50:23.419Z,49.90
2019-02-20T14:52:51.998Z,50.10
2019-02-20T14:55:20.455Z,50.60
2019-02-20T14:58:04.174Z,50.70
2019-02-20T15:00:32.709Z,50.70
2019-02-20T15:03:03.792Z,50.10
2019-02-20T15:05:32.435Z,50.30
2019-02-20T15:08:02.156Z,50.30
2019-02-20T15:10:31.870Z,50.50
2019-02-20T15:13:00.352Z,50.50
2019-02-20T15:15:29.273Z,50.10
2019-02-20T15:17:58.294Z,50.30
2019-02-20T15:20:27.796Z,49.50
2019-02-20T15:22:58.429Z,49.10
2019-02-20T15:25:27.095Z,48.80
2019-02-20T15:27:55.776Z,48.70
2019-02-20T15:30:24.339Z,48.70
2019-02-20T15:32:52.882Z,48.80
2019-02-20T15:35:21.819Z,49.30
2019-02-20T15:37:51.653Z,49.80
2019-02-20T15:40:22.339Z,49.90
2019-02-20T15:42:52.408Z,50.00
2019-02-20T15:45:20.951Z,50.10
2019-02-20T15:47:54.431Z,50.10
2019-02-20T15:50:22.102Z,49.60
2019-02-20T15:52:50.593Z,49.30
2019-02-20T15:55:19.799Z,49.70
2019-02-20T15:57:48.303Z,49.70
2019-02-20T16:00:20.129Z,49.80
2019-02-20T16:02:50.838Z,49.80
2019-02-20T16:05:19.536Z,49.60
2019-02-20T16:07:48.249Z,49.70
2019-02-20T16:10:17.052Z,49.90
2019-02-20T16:12:45.643Z,50.10
2019-02-20T16:15:14.827Z,50.40
2019-02-20T16:17:44.811Z,50.60
2019-02-20T16:20:14.092Z,50.70
2019-02-20T16:22:42.630Z,50.90
2019-02-20T16:25:14.412Z,51.00
2019-02-20T16:27:47.190Z,51.40
2019-02-20T16:30:15.149Z,51.60
2019-02-20T16:32:43.706Z,51.90
2019-02-20T16:35:12.846Z,52.10
2019-02-20T16:37:44.681Z,52.40
2019-02-20T16:40:15.053Z,52.60
2019-02-20T16:42:43.575Z,52.60
2019-02-20T16:45:25.352Z,52.90
2019-02-20T16:47:54.360Z,53.20
2019-02-20T16:50:23.026Z,53.20
2019-02-20T16:52:51.656Z,53.30
2019-02-20T16:55:22.582Z,53.50
2019-02-20T16:57:56.751Z,53.90
2019-02-20T17:00:22.675Z,54.10
2019-02-20T17:02:51.704Z,54.30
2019-02-20T17:05:20.308Z,54.50
2019-02-20T17:07:49.019Z,54.60
2019-02-20T17:10:17.646Z,55.00
2019-02-20T17:12:46.293Z,55.30
2019-02-20T17:15:16.924Z,56.00
2019-02-20T17:17:45.622Z,55.60
2019-02-20T17:20:35.009Z,55.70
2019-02-20T17:23:05.146Z,55.90
2019-02-20T17:25:33.715Z,56.10
2019-02-20T17:28:05.747Z,56.20
2019-02-20T17:30:32.713Z,56.30
2019-02-20T17:33:01.965Z,56.50
2019-02-20T17:35:30.758Z,56.60
2019-02-20T17:37:59.385Z,56.90
2019-02-20T17:40:28.691Z,56.90
2019-02-20T17:42:57.224Z,57.00
2019-02-20T17:45:26.403Z,57.20
2019-02-20T17:47:55.009Z,57.30
2019-02-20T17:50:25.308Z,57.40
2019-02-20T17:52:53.919Z,57.40
2019-02-20T17:55:22.437Z,57.50
2019-02-20T17:57:51.116Z,57.60
2019-02-20T18:00:21.848Z,57.70
2019-02-20T18:02:50.353Z,57.80
2019-02-20T18:05:18.910Z,57.80
2019-02-20T18:07:51.403Z,57.90
2019-02-20T18:10:17.667Z,57.90
2019-02-20T18:12:46.171Z,57.80
2019-02-20T18:15:15.084Z,58.50
2019-02-20T18:17:43.817Z,57.80
2019-02-20T18:20:12.670Z,57.90
2019-02-20T18:22:41.210Z,58.00
2019-02-20T18:25:12.832Z,58.10
2019-02-20T18:27:41.447Z,58.30
2019-02-20T18:30:12.523Z,58.40
2019-02-20T18:32:42.322Z,58.50
2019-02-20T18:35:12.412Z,58.70
2019-02-20T18:37:40.978Z,58.80
2019-02-20T18:40:12.222Z,58.90
2019-02-20T18:42:40.692Z,59.10
2019-02-20T18:45:12.286Z,59.20
2019-02-20T18:47:40.805Z,59.40
2019-02-20T18:50:12.259Z,59.40
2019-02-20T18:52:40.804Z,59.60
2019-02-20T18:55:12.386Z,59.70
2019-02-20T18:57:41.941Z,59.90
2019-02-20T19:00:16.158Z,59.90
2019-02-20T19:02:44.784Z,60.10
2019-02-20T19:05:13.379Z,60.30
2019-02-20T19:07:43.494Z,60.50
2019-02-20T19:10:35.698Z,60.50
2019-02-20T19:13:24.831Z,60.70
2019-02-20T19:16:18.304Z,60.80
2019-02-20T19:19:03.215Z,61.00
2019-02-20T19:21:50.198Z,61.20
2019-02-20T19:24:30.835Z,61.40
2019-02-20T19:27:09.243Z,61.50
2019-02-20T19:29:44.677Z,61.60
2019-02-20T19:32:28.481Z,61.70
2019-02-20T19:34:57.794Z,61.90
2019-02-20T19:37:38.119Z,61.80
2019-02-20T19:40:32.253Z,62.00
2019-02-20T19:43:30.563Z,62.10
2019-02-20T19:46:18.497Z,62.30
2019-02-20T19:48:56.210Z,62.40
2019-02-20T19:51:39.224Z,62.70
2019-02-20T19:54:22.696Z,62.90
2019-02-20T19:56:56.986Z,63.20
2019-02-20T19:59:40.827Z,63.20
2019-02-20T20:02:28.465Z,63.40
2019-02-20T20:05:16.280Z,63.50
2019-02-20T20:07:56.710Z,63.50
2019-02-20T20:10:37.197Z,63.70
2019-02-20T20:13:25.496Z,63.80
2019-02-20T20:16:18.161Z,63.90
2019-02-20T20:18:56.084Z,64.00
2019-02-20T20:21:33.761Z,64.10
2019-02-20T20:24:32.521Z,64.30
2019-02-20T20:27:35.899Z,64.00
2019-02-20T20:30:16.955Z,64.00
2019-02-20T20:32:55.221Z,63.90
2019-02-20T20:35:59.816Z,63.90
2019-02-20T20:38:45.995Z,63.90
2019-02-20T20:41:21.179Z,63.90
2019-02-20T20:44:27.752Z,64.00
2019-02-20T20:47:05.107Z,64.10
2019-02-20T20:50:02.365Z,64.10
2019-02-20T20:52:33.924Z,64.00
2019-02-20T20:55:20.227Z,64.10
2019-02-20T20:58:11.395Z,64.10
2019-02-20T21:01:02.607Z,64.00
2019-02-20T21:03:34.156Z,64.10
2019-02-20T21:06:05.788Z,64.20
2019-02-20T21:08:37.342Z,64.20
2019-02-20T21:11:17.689Z,64.30
2019-02-20T21:13:57.787Z,64.30
2019-02-20T21:16:53.925Z,64.40
2019-02-20T21:19:57.333Z,64.40
2019-02-20T21:22:55.699Z,64.40
2019-02-20T21:25:53.082Z,64.40
2019-02-20T21:28:52.788Z,64.40
2019-02-20T21:31:40.803Z,64.50
2019-02-20T21:34:29.902Z,64.40
2019-02-20T21:37:06.821Z,64.40
2019-02-20T21:39:38.354Z,64.40
2019-02-20T21:42:16.047Z,64.30
2019-02-20T21:44:53.455Z,64.30
2019-02-20T21:47:39.330Z,64.20
2019-02-20T21:50:16.146Z,64.20
2019-02-20T21:52:53.875Z,65.00
2019-02-20T21:55:58.907Z,64.10
2019-02-20T21:58:33.396Z,64.20
2019-02-20T22:01:22.825Z,64.30
2019-02-20T22:03:57.264Z,64.40
2019-02-20T22:06:49.717Z,64.40
2019-02-20T22:09:37.515Z,64.50
2019-02-20T22:12:50.593Z,64.60
2019-02-20T22:15:39.620Z,64.60
2019-02-20T22:18:20.467Z,64.70
2019-02-20T22:21:13.353Z,64.80
2019-02-20T22:23:50.903Z,64.90
2019-02-20T22:26:46.647Z,65.10
2019-02-20T22:29:21.297Z,65.20
2019-02-20T22:32:07.917Z,65.40
2019-02-20T22:34:48.304Z,65.50
2019-02-20T22:37:31.911Z,65.60
2019-02-20T22:40:28.958Z,65.70
2019-02-20T22:43:08.676Z,66.00
2019-02-20T22:45:55.086Z,66.10
2019-02-20T22:48:35.708Z,66.30
2019-02-20T22:51:22.469Z,66.60
2019-02-20T22:54:10.826Z,66.80
2019-02-20T22:57:09.169Z,66.90
2019-02-20T23:00:01.374Z,67.10
2019-02-20T23:02:48.688Z,67.30
2019-02-20T23:05:39.795Z,67.50
2019-02-20T23:08:20.561Z,67.60
2019-02-20T23:11:14.264Z,67.80
2019-02-20T23:13:45.859Z,68.10
2019-02-20T23:16:14.306Z,68.20
2019-02-20T23:18:42.946Z,68.40
2019-02-20T23:21:11.426Z,68.60
2019-02-20T23:23:39.875Z,69.00
2019-02-20T23:26:08.331Z,69.10
2019-02-20T23:28:36.904Z,69.20
2019-02-20T23:31:05.371Z,69.40
2019-02-20T23:33:34.413Z,69.60
2019-02-20T23:36:02.875Z,69.80
2019-02-20T23:38:31.503Z,70.10
2019-02-20T23:40:59.977Z,70.20
2019-02-20T23:43:28.421Z,70.40
2019-02-20T23:45:56.889Z,70.60
2019-02-20T23:48:25.364Z,70.80
2019-02-20T23:50:53.877Z,71.00
2019-02-20T23:53:22.341Z,71.20
2019-02-20T23:55:50.811Z,71.40
2019-02-20T23:58:19.267Z,71.50
